sensor_id;sensor_type;location;lat;lon;timestamp;temperature;humidity
26230;DHT22;13960;50.860;4.352;2022-09-06T00:00:03;19.80;99.90
26230;DHT22;13960;50.860;4.352;2022-09-06T00:02:30;19.80;99.90
26230;DHT22;13960;50.860;4.352;2022-09-06T00:04:56;19.80;99.90
26230;DHT22;13960;50.860;4.352;2022-09-06T00:07:22;19.70;99.90
26230;DHT22;13960;50.860;4.352;2022-09-06T00:09:47;19.80;99.90
26230;DHT22;13960;50.860;4.352;2022-09-06T00:12:13;19.70;99.90
26230;DHT22;13960;50.860;4.352;2022-09-06T00:14:38;19.70;99.90
26230;DHT22;13960;50.860;4.352;2022-09-06T00:17:04;19.60;99.90
26230;DHT22;13960;50.860;4.352;2022-09-06T00:19:29;19.60;99.90
26230;DHT22;13960;50.860;4.352;2022-09-06T00:21:55;19.60;99.90
26230;DHT22;13960;50.860;4.352;2022-09-06T00:24:20;19.70;99.90
26230;DHT22;13960;50.860;4.352;2022-09-06T00:26:46;19.70;99.90
26230;DHT22;13960;50.860;4.352;2022-09-06T00:29:11;19.80;99.90
26230;DHT22;13960;50.860;4.352;2022-09-06T00:31:37;19.80;99.90
26230;DHT22;13960;50.860;4.352;2022-09-06T00:34:02;19.90;99.90
26230;DHT22;13960;50.860;4.352;2022-09-06T00:36:28;19.90;99.90
26230;DHT22;13960;50.860;4.352;2022-09-06T00:38:53;19.80;99.90
26230;DHT22;13960;50.860;4.352;2022-09-06T00:41:19;19.60;99.90
26230;DHT22;13960;50.860;4.352;2022-09-06T00:43:44;19.70;99.90
26230;DHT22;13960;50.860;4.352;2022-09-06T00:46:12;19.70;99.90
26230;DHT22;13960;50.860;4.352;2022-09-06T00:48:38;19.70;99.90
26230;DHT22;13960;50.860;4.352;2022-09-06T00:51:04;19.80;99.90
26230;DHT22;13960;50.860;4.352;2022-09-06T00:53:32;19.70;99.90
26230;DHT22;13960;50.860;4.352;2022-09-06T00:55:58;19.90;99.90
26230;DHT22;13960;50.860;4.352;2022-09-06T00:58:24;19.80;99.90
26230;DHT22;13960;50.860;4.352;2022-09-06T01:00:49;19.70;99.90
26230;DHT22;13960;50.860;4.352;2022-09-06T01:03:15;19.60;99.90
26230;DHT22;13960;50.860;4.352;2022-09-06T01:18:16;19.60;99.90
26230;DHT22;13960;50.860;4.352;2022-09-06T01:20:47;19.60;99.90
26230;DHT22;13960;50.860;4.352;2022-09-06T01:28:38;19.40;99.90
26230;DHT22;13960;50.860;4.352;2022-09-06T01:36:21;19.30;99.90
26230;DHT22;13960;50.860;4.352;2022-09-06T01:38:48;19.50;99.90
26230;DHT22;13960;50.860;4.352;2022-09-06T01:41:14;19.50;99.90
26230;DHT22;13960;50.860;4.352;2022-09-06T01:43:40;19.50;99.90
26230;DHT22;13960;50.860;4.352;2022-09-06T01:51:31;19.50;99.90
26230;DHT22;13960;50.860;4.352;2022-09-06T02:01:58;19.40;99.90
26230;DHT22;13960;50.860;4.352;2022-09-06T02:04:27;19.40;99.90
26230;DHT22;13960;50.860;4.352;2022-09-06T02:06:56;19.20;99.90
26230;DHT22;13960;50.860;4.352;2022-09-06T02:09:24;19.20;99.90
26230;DHT22;13960;50.860;4.352;2022-09-06T02:11:53;19.30;99.90
26230;DHT22;13960;50.860;4.352;2022-09-06T02:14:22;19.30;99.90
26230;DHT22;13960;50.860;4.352;2022-09-06T02:16:49;19.30;99.90
26230;DHT22;13960;50.860;4.352;2022-09-06T02:19:26;19.40;99.90
26230;DHT22;13960;50.860;4.352;2022-09-06T02:21:56;19.30;99.90
26230;DHT22;13960;50.860;4.352;2022-09-06T02:24:24;19.40;99.90
26230;DHT22;13960;50.860;4.352;2022-09-06T02:26:52;19.50;99.90
26230;DHT22;13960;50.860;4.352;2022-09-06T02:29:18;19.50;99.90
26230;DHT22;13960;50.860;4.352;2022-09-06T02:31:44;19.70;99.90
26230;DHT22;13960;50.860;4.352;2022-09-06T02:34:13;19.90;99.90
26230;DHT22;13960;50.860;4.352;2022-09-06T02:36:39;19.80;99.90
26230;DHT22;13960;50.860;4.352;2022-09-06T02:39:04;19.80;99.90
26230;DHT22;13960;50.860;4.352;2022-09-06T02:41:30;19.90;99.90
26230;DHT22;13960;50.860;4.352;2022-09-06T02:43:56;19.70;99.90
26230;DHT22;13960;50.860;4.352;2022-09-06T02:46:21;19.70;99.90
26230;DHT22;13960;50.860;4.352;2022-09-06T02:48:48;19.70;99.90
26230;DHT22;13960;50.860;4.352;2022-09-06T02:51:14;19.80;99.90
26230;DHT22;13960;50.860;4.352;2022-09-06T02:53:39;19.50;99.90
26230;DHT22;13960;50.860;4.352;2022-09-06T02:56:05;19.40;99.90
26230;DHT22;13960;50.860;4.352;2022-09-06T02:58:31;19.40;99.90
26230;DHT22;13960;50.860;4.352;2022-09-06T03:00:56;19.10;99.90
26230;DHT22;13960;50.860;4.352;2022-09-06T03:03:22;19.20;99.90
26230;DHT22;13960;50.860;4.352;2022-09-06T03:05:48;19.30;99.90
26230;DHT22;13960;50.860;4.352;2022-09-06T03:08:14;19.50;99.90
26230;DHT22;13960;50.860;4.352;2022-09-06T03:10:39;19.20;99.90
26230;DHT22;13960;50.860;4.352;2022-09-06T03:13:05;19.20;99.90
26230;DHT22;13960;50.860;4.352;2022-09-06T03:15:30;19.20;99.90
26230;DHT22;13960;50.860;4.352;2022-09-06T03:17:56;19.40;99.90
26230;DHT22;13960;50.860;4.352;2022-09-06T03:20:22;19.20;99.90
26230;DHT22;13960;50.860;4.352;2022-09-06T03:22:48;19.20;99.90
26230;DHT22;13960;50.860;4.352;2022-09-06T03:25:13;19.20;99.90
26230;DHT22;13960;50.860;4.352;2022-09-06T03:27:39;19.10;99.90
26230;DHT22;13960;50.860;4.352;2022-09-06T03:30:05;19.10;99.90
26230;DHT22;13960;50.860;4.352;2022-09-06T03:32:31;19.20;99.90
26230;DHT22;13960;50.860;4.352;2022-09-06T03:34:56;19.10;99.90
26230;DHT22;13960;50.860;4.352;2022-09-06T03:37:22;19.10;99.90
26230;DHT22;13960;50.860;4.352;2022-09-06T03:39:47;19.20;99.90
26230;DHT22;13960;50.860;4.352;2022-09-06T03:42:13;19.20;99.90
26230;DHT22;13960;50.860;4.352;2022-09-06T03:44:38;19.30;99.90
26230;DHT22;13960;50.860;4.352;2022-09-06T03:47:04;19.40;99.90
26230;DHT22;13960;50.860;4.352;2022-09-06T03:49:29;19.50;99.90
26230;DHT22;13960;50.860;4.352;2022-09-06T03:51:55;19.50;99.90
26230;DHT22;13960;50.860;4.352;2022-09-06T03:54:20;19.40;99.90
26230;DHT22;13960;50.860;4.352;2022-09-06T03:56:46;19.40;99.90
26230;DHT22;13960;50.860;4.352;2022-09-06T03:59:11;19.40;99.90
26230;DHT22;13960;50.860;4.352;2022-09-06T04:01:37;19.40;99.90
26230;DHT22;13960;50.860;4.352;2022-09-06T04:04:02;19.40;99.90
26230;DHT22;13960;50.860;4.352;2022-09-06T04:06:28;19.30;99.90
26230;DHT22;13960;50.860;4.352;2022-09-06T04:08:53;19.30;99.90
26230;DHT22;13960;50.860;4.352;2022-09-06T04:11:19;19.20;99.90
26230;DHT22;13960;50.860;4.352;2022-09-06T04:13:44;19.20;99.90
26230;DHT22;13960;50.860;4.352;2022-09-06T04:16:10;19.20;99.90
26230;DHT22;13960;50.860;4.352;2022-09-06T04:18:36;19.20;99.90
26230;DHT22;13960;50.860;4.352;2022-09-06T04:21:01;19.10;99.90
26230;DHT22;13960;50.860;4.352;2022-09-06T04:23:27;19.00;99.90
26230;DHT22;13960;50.860;4.352;2022-09-06T04:25:53;19.10;99.90
26230;DHT22;13960;50.860;4.352;2022-09-06T04:28:19;19.10;99.90
26230;DHT22;13960;50.860;4.352;2022-09-06T04:30:50;19.20;99.90
26230;DHT22;13960;50.860;4.352;2022-09-06T04:33:16;19.20;99.90
26230;DHT22;13960;50.860;4.352;2022-09-06T04:35:41;19.20;99.90
26230;DHT22;13960;50.860;4.352;2022-09-06T04:38:07;19.20;99.90
26230;DHT22;13960;50.860;4.352;2022-09-06T04:40:32;19.30;99.90
26230;DHT22;13960;50.860;4.352;2022-09-06T04:42:58;19.20;99.90
26230;DHT22;13960;50.860;4.352;2022-09-06T04:45:23;19.40;99.90
26230;DHT22;13960;50.860;4.352;2022-09-06T04:47:49;19.50;99.90
26230;DHT22;13960;50.860;4.352;2022-09-06T04:50:15;19.60;99.90
26230;DHT22;13960;50.860;4.352;2022-09-06T04:52:41;19.60;99.90
26230;DHT22;13960;50.860;4.352;2022-09-06T04:55:07;19.70;99.90
26230;DHT22;13960;50.860;4.352;2022-09-06T04:57:32;19.80;99.90
26230;DHT22;13960;50.860;4.352;2022-09-06T04:59:58;19.80;99.90
26230;DHT22;13960;50.860;4.352;2022-09-06T05:02:23;19.80;99.90
26230;DHT22;13960;50.860;4.352;2022-09-06T05:04:49;19.80;99.90
26230;DHT22;13960;50.860;4.352;2022-09-06T05:07:14;19.70;99.90
26230;DHT22;13960;50.860;4.352;2022-09-06T05:09:40;19.80;99.90
26230;DHT22;13960;50.860;4.352;2022-09-06T05:12:05;19.90;99.90
26230;DHT22;13960;50.860;4.352;2022-09-06T05:14:31;19.90;99.90
26230;DHT22;13960;50.860;4.352;2022-09-06T05:16:56;20.00;99.90
26230;DHT22;13960;50.860;4.352;2022-09-06T05:19:22;20.00;99.90
26230;DHT22;13960;50.860;4.352;2022-09-06T05:21:49;19.70;99.90
26230;DHT22;13960;50.860;4.352;2022-09-06T05:24:14;19.70;99.90
26230;DHT22;13960;50.860;4.352;2022-09-06T05:26:40;19.70;99.90
26230;DHT22;13960;50.860;4.352;2022-09-06T05:29:05;19.70;99.90
26230;DHT22;13960;50.860;4.352;2022-09-06T05:31:31;19.70;99.90
26230;DHT22;13960;50.860;4.352;2022-09-06T05:33:58;19.70;99.90
26230;DHT22;13960;50.860;4.352;2022-09-06T05:36:24;19.70;99.90
26230;DHT22;13960;50.860;4.352;2022-09-06T05:38:50;19.70;99.90
26230;DHT22;13960;50.860;4.352;2022-09-06T05:41:16;19.70;99.90
26230;DHT22;13960;50.860;4.352;2022-09-06T05:43:41;19.70;99.90
26230;DHT22;13960;50.860;4.352;2022-09-06T05:46:07;19.70;99.90
26230;DHT22;13960;50.860;4.352;2022-09-06T05:48:33;19.70;99.90
26230;DHT22;13960;50.860;4.352;2022-09-06T05:50:59;19.70;99.90
26230;DHT22;13960;50.860;4.352;2022-09-06T05:53:25;19.80;99.90
26230;DHT22;13960;50.860;4.352;2022-09-06T05:55:51;19.80;99.90
26230;DHT22;13960;50.860;4.352;2022-09-06T05:58:16;19.80;99.90
26230;DHT22;13960;50.860;4.352;2022-09-06T06:00:42;19.80;99.90
26230;DHT22;13960;50.860;4.352;2022-09-06T06:03:07;19.90;99.90
26230;DHT22;13960;50.860;4.352;2022-09-06T06:05:33;20.00;99.90
26230;DHT22;13960;50.860;4.352;2022-09-06T06:07:58;20.00;99.90
26230;DHT22;13960;50.860;4.352;2022-09-06T06:10:24;20.00;99.90
26230;DHT22;13960;50.860;4.352;2022-09-06T06:12:49;20.00;99.90
26230;DHT22;13960;50.860;4.352;2022-09-06T06:15:15;20.10;99.90
26230;DHT22;13960;50.860;4.352;2022-09-06T06:17:40;20.10;99.90
26230;DHT22;13960;50.860;4.352;2022-09-06T06:20:06;20.10;99.90
26230;DHT22;13960;50.860;4.352;2022-09-06T06:22:32;20.10;99.90
26230;DHT22;13960;50.860;4.352;2022-09-06T06:24:57;20.10;99.90
26230;DHT22;13960;50.860;4.352;2022-09-06T06:27:22;19.90;99.90
26230;DHT22;13960;50.860;4.352;2022-09-06T06:29:48;20.00;99.90
26230;DHT22;13960;50.860;4.352;2022-09-06T06:32:14;20.00;99.90
26230;DHT22;13960;50.860;4.352;2022-09-06T06:34:40;20.00;99.90
26230;DHT22;13960;50.860;4.352;2022-09-06T06:37:05;20.00;99.90
26230;DHT22;13960;50.860;4.352;2022-09-06T06:39:31;20.10;99.90
26230;DHT22;13960;50.860;4.352;2022-09-06T06:41:57;20.20;99.90
26230;DHT22;13960;50.860;4.352;2022-09-06T06:44:22;20.20;99.90
26230;DHT22;13960;50.860;4.352;2022-09-06T06:46:48;20.30;99.90
26230;DHT22;13960;50.860;4.352;2022-09-06T06:49:14;20.10;99.90
26230;DHT22;13960;50.860;4.352;2022-09-06T06:51:39;20.20;99.90
26230;DHT22;13960;50.860;4.352;2022-09-06T06:54:05;20.10;99.90
26230;DHT22;13960;50.860;4.352;2022-09-06T06:56:37;19.90;99.90
26230;DHT22;13960;50.860;4.352;2022-09-06T06:59:05;19.90;99.90
26230;DHT22;13960;50.860;4.352;2022-09-06T07:01:31;19.80;99.90
26230;DHT22;13960;50.860;4.352;2022-09-06T07:03:57;19.90;99.90
26230;DHT22;13960;50.860;4.352;2022-09-06T07:06:23;19.90;99.90
26230;DHT22;13960;50.860;4.352;2022-09-06T07:08:48;19.90;99.90
26230;DHT22;13960;50.860;4.352;2022-09-06T07:11:15;20.00;99.90
26230;DHT22;13960;50.860;4.352;2022-09-06T07:13:41;19.90;99.90
26230;DHT22;13960;50.860;4.352;2022-09-06T07:18:33;20.10;99.90
26230;DHT22;13960;50.860;4.352;2022-09-06T07:20:58;20.10;99.90
26230;DHT22;13960;50.860;4.352;2022-09-06T07:23:24;20.10;99.90
26230;DHT22;13960;50.860;4.352;2022-09-06T07:25:49;20.10;99.90
26230;DHT22;13960;50.860;4.352;2022-09-06T07:28:15;20.10;99.90
26230;DHT22;13960;50.860;4.352;2022-09-06T07:30:40;20.20;99.90
26230;DHT22;13960;50.860;4.352;2022-09-06T07:33:06;20.20;99.90
26230;DHT22;13960;50.860;4.352;2022-09-06T07:35:32;20.20;99.90
26230;DHT22;13960;50.860;4.352;2022-09-06T07:37:58;20.30;99.90
26230;DHT22;13960;50.860;4.352;2022-09-06T07:40:24;20.30;99.90
26230;DHT22;13960;50.860;4.352;2022-09-06T07:42:51;20.40;99.90
26230;DHT22;13960;50.860;4.352;2022-09-06T07:45:16;20.40;99.90
26230;DHT22;13960;50.860;4.352;2022-09-06T07:47:42;20.40;99.90
26230;DHT22;13960;50.860;4.352;2022-09-06T07:50:07;20.50;99.90
26230;DHT22;13960;50.860;4.352;2022-09-06T07:52:33;20.40;99.90
26230;DHT22;13960;50.860;4.352;2022-09-06T07:54:58;20.40;99.90
26230;DHT22;13960;50.860;4.352;2022-09-06T07:57:24;20.50;99.90
26230;DHT22;13960;50.860;4.352;2022-09-06T07:59:49;20.30;99.90
26230;DHT22;13960;50.860;4.352;2022-09-06T08:02:15;20.30;99.90
26230;DHT22;13960;50.860;4.352;2022-09-06T08:04:42;20.40;99.90
26230;DHT22;13960;50.860;4.352;2022-09-06T08:07:07;20.60;99.90
26230;DHT22;13960;50.860;4.352;2022-09-06T08:09:33;20.70;99.90
26230;DHT22;13960;50.860;4.352;2022-09-06T08:11:59;20.80;99.90
26230;DHT22;13960;50.860;4.352;2022-09-06T08:14:31;20.70;99.90
26230;DHT22;13960;50.860;4.352;2022-09-06T08:16:56;20.80;99.90
26230;DHT22;13960;50.860;4.352;2022-09-06T08:19:22;21.00;99.90
26230;DHT22;13960;50.860;4.352;2022-09-06T08:21:47;20.90;99.90
26230;DHT22;13960;50.860;4.352;2022-09-06T08:24:13;20.90;99.90
26230;DHT22;13960;50.860;4.352;2022-09-06T08:26:39;20.90;99.90
26230;DHT22;13960;50.860;4.352;2022-09-06T08:29:06;21.00;99.90
26230;DHT22;13960;50.860;4.352;2022-09-06T08:31:33;21.00;99.90
26230;DHT22;13960;50.860;4.352;2022-09-06T08:34:00;21.10;99.90
26230;DHT22;13960;50.860;4.352;2022-09-06T08:36:26;21.10;99.90
26230;DHT22;13960;50.860;4.352;2022-09-06T08:38:54;21.10;99.90
26230;DHT22;13960;50.860;4.352;2022-09-06T08:43:56;21.30;99.90
26230;DHT22;13960;50.860;4.352;2022-09-06T08:46:33;21.10;99.90
26230;DHT22;13960;50.860;4.352;2022-09-06T08:49:01;21.00;99.90
26230;DHT22;13960;50.860;4.352;2022-09-06T08:54:15;21.20;99.90
26230;DHT22;13960;50.860;4.352;2022-09-06T08:57:29;21.40;99.90
26230;DHT22;13960;50.860;4.352;2022-09-06T08:59:36;21.40;99.90
26230;DHT22;13960;50.860;4.352;2022-09-06T09:04:27;21.60;99.90
26230;DHT22;13960;50.860;4.352;2022-09-06T09:06:56;21.80;99.90
26230;DHT22;13960;50.860;4.352;2022-09-06T09:09:23;21.90;99.90
26230;DHT22;13960;50.860;4.352;2022-09-06T09:11:51;21.70;99.90
26230;DHT22;13960;50.860;4.352;2022-09-06T09:14:25;21.70;99.90
26230;DHT22;13960;50.860;4.352;2022-09-06T09:16:52;21.80;99.90
26230;DHT22;13960;50.860;4.352;2022-09-06T09:19:18;21.70;99.90
26230;DHT22;13960;50.860;4.352;2022-09-06T09:21:44;21.60;99.90
26230;DHT22;13960;50.860;4.352;2022-09-06T09:24:10;21.60;99.90
26230;DHT22;13960;50.860;4.352;2022-09-06T09:26:49;21.80;99.90
26230;DHT22;13960;50.860;4.352;2022-09-06T09:29:16;21.70;99.90
26230;DHT22;13960;50.860;4.352;2022-09-06T09:31:45;21.70;99.90
26230;DHT22;13960;50.860;4.352;2022-09-06T09:34:30;21.80;99.90
26230;DHT22;13960;50.860;4.352;2022-09-06T09:37:17;21.90;99.90
26230;DHT22;13960;50.860;4.352;2022-09-06T09:39:44;22.10;99.90
26230;DHT22;13960;50.860;4.352;2022-09-06T09:42:10;22.20;99.90
26230;DHT22;13960;50.860;4.352;2022-09-06T09:44:43;22.10;99.90
26230;DHT22;13960;50.860;4.352;2022-09-06T09:47:28;22.20;99.90
26230;DHT22;13960;50.860;4.352;2022-09-06T09:49:54;22.30;99.90
26230;DHT22;13960;50.860;4.352;2022-09-06T09:52:24;22.20;99.90
26230;DHT22;13960;50.860;4.352;2022-09-06T09:54:50;22.20;99.90
26230;DHT22;13960;50.860;4.352;2022-09-06T09:57:20;22.30;99.90
26230;DHT22;13960;50.860;4.352;2022-09-06T09:59:52;22.30;99.90
26230;DHT22;13960;50.860;4.352;2022-09-06T10:02:24;22.40;99.90
26230;DHT22;13960;50.860;4.352;2022-09-06T10:05:08;22.50;99.90
26230;DHT22;13960;50.860;4.352;2022-09-06T10:07:34;22.50;99.90
26230;DHT22;13960;50.860;4.352;2022-09-06T10:10:19;22.60;99.90
26230;DHT22;13960;50.860;4.352;2022-09-06T10:12:45;22.60;99.90
26230;DHT22;13960;50.860;4.352;2022-09-06T10:15:11;22.70;99.90
26230;DHT22;13960;50.860;4.352;2022-09-06T10:17:55;22.80;99.90
26230;DHT22;13960;50.860;4.352;2022-09-06T10:20:21;22.60;99.90
26230;DHT22;13960;50.860;4.352;2022-09-06T10:22:52;22.70;99.90
26230;DHT22;13960;50.860;4.352;2022-09-06T10:25:35;22.70;99.90
26230;DHT22;13960;50.860;4.352;2022-09-06T10:33:25;22.80;99.90
26230;DHT22;13960;50.860;4.352;2022-09-06T10:35:52;22.80;99.90
26230;DHT22;13960;50.860;4.352;2022-09-06T10:40:57;23.00;99.90
26230;DHT22;13960;50.860;4.352;2022-09-06T10:43:25;23.00;99.90
26230;DHT22;13960;50.860;4.352;2022-09-06T10:45:58;23.10;99.90
26230;DHT22;13960;50.860;4.352;2022-09-06T10:48:31;23.10;99.90
26230;DHT22;13960;50.860;4.352;2022-09-06T10:51:02;23.40;99.90
26230;DHT22;13960;50.860;4.352;2022-09-06T10:56:00;23.60;99.90
26230;DHT22;13960;50.860;4.352;2022-09-06T10:58:27;23.60;99.90
26230;DHT22;13960;50.860;4.352;2022-09-06T11:00:53;23.70;99.90
26230;DHT22;13960;50.860;4.352;2022-09-06T11:05:55;23.60;99.90
26230;DHT22;13960;50.860;4.352;2022-09-06T11:08:37;23.70;99.90
26230;DHT22;13960;50.860;4.352;2022-09-06T11:11:10;23.70;99.90
26230;DHT22;13960;50.860;4.352;2022-09-06T11:13:38;23.70;99.90
26230;DHT22;13960;50.860;4.352;2022-09-06T11:16:14;23.70;99.90
26230;DHT22;13960;50.860;4.352;2022-09-06T11:26:33;24.20;99.90
26230;DHT22;13960;50.860;4.352;2022-09-06T11:29:08;24.30;99.90
26230;DHT22;13960;50.860;4.352;2022-09-06T11:31:47;24.40;99.90
26230;DHT22;13960;50.860;4.352;2022-09-06T11:34:23;24.30;99.90
26230;DHT22;13960;50.860;4.352;2022-09-06T11:41:49;24.40;99.90
26230;DHT22;13960;50.860;4.352;2022-09-06T11:44:49;24.60;99.90
26230;DHT22;13960;50.860;4.352;2022-09-06T11:47:00;24.60;99.90
26230;DHT22;13960;50.860;4.352;2022-09-06T11:49:27;24.70;99.90
26230;DHT22;13960;50.860;4.352;2022-09-06T11:51:53;24.80;99.90
26230;DHT22;13960;50.860;4.352;2022-09-06T11:56:52;25.20;99.90
26230;DHT22;13960;50.860;4.352;2022-09-06T12:04:19;25.30;99.90
26230;DHT22;13960;50.860;4.352;2022-09-06T12:09:31;25.40;99.90
26230;DHT22;13960;50.860;4.352;2022-09-06T12:11:57;25.50;99.90
26230;DHT22;13960;50.860;4.352;2022-09-06T12:14:31;25.60;99.90
26230;DHT22;13960;50.860;4.352;2022-09-06T12:27:55;25.80;99.90
26230;DHT22;13960;50.860;4.352;2022-09-06T12:32:56;26.00;99.90
26230;DHT22;13960;50.860;4.352;2022-09-06T12:35:23;26.20;99.90
26230;DHT22;13960;50.860;4.352;2022-09-06T12:40:16;26.20;99.90
26230;DHT22;13960;50.860;4.352;2022-09-06T12:42:42;26.40;99.90
26230;DHT22;13960;50.860;4.352;2022-09-06T12:45:10;26.60;99.90
26230;DHT22;13960;50.860;4.352;2022-09-06T12:47:36;26.40;99.90
26230;DHT22;13960;50.860;4.352;2022-09-06T12:57:49;26.50;99.90
26230;DHT22;13960;50.860;4.352;2022-09-06T13:00:15;26.50;99.90
26230;DHT22;13960;50.860;4.352;2022-09-06T13:05:19;27.40;99.90
26230;DHT22;13960;50.860;4.352;2022-09-06T13:07:47;28.10;99.90
26230;DHT22;13960;50.860;4.352;2022-09-06T13:10:14;28.40;99.90
26230;DHT22;13960;50.860;4.352;2022-09-06T13:12:42;28.80;99.90
26230;DHT22;13960;50.860;4.352;2022-09-06T13:15:26;29.00;99.90
26230;DHT22;13960;50.860;4.352;2022-09-06T13:17:53;28.70;99.90
26230;DHT22;13960;50.860;4.352;2022-09-06T13:20:26;29.00;99.90
26230;DHT22;13960;50.860;4.352;2022-09-06T13:23:03;29.30;99.90
26230;DHT22;13960;50.860;4.352;2022-09-06T13:25:29;29.50;99.90
26230;DHT22;13960;50.860;4.352;2022-09-06T13:27:55;29.80;99.90
26230;DHT22;13960;50.860;4.352;2022-09-06T13:30:29;29.70;99.90
26230;DHT22;13960;50.860;4.352;2022-09-06T13:32:55;28.90;99.90
26230;DHT22;13960;50.860;4.352;2022-09-06T13:35:25;28.70;99.90
26230;DHT22;13960;50.860;4.352;2022-09-06T13:37:50;29.10;99.90
26230;DHT22;13960;50.860;4.352;2022-09-06T13:40:35;29.60;99.90
26230;DHT22;13960;50.860;4.352;2022-09-06T13:43:01;30.40;99.90
26230;DHT22;13960;50.860;4.352;2022-09-06T13:45:28;30.60;99.90
26230;DHT22;13960;50.860;4.352;2022-09-06T13:47:54;30.80;99.90
26230;DHT22;13960;50.860;4.352;2022-09-06T13:50:19;30.20;99.90
26230;DHT22;13960;50.860;4.352;2022-09-06T13:52:44;29.70;99.90
26230;DHT22;13960;50.860;4.352;2022-09-06T13:55:13;29.80;99.90
26230;DHT22;13960;50.860;4.352;2022-09-06T13:57:40;29.90;99.90
26230;DHT22;13960;50.860;4.352;2022-09-06T14:00:06;30.30;99.90
26230;DHT22;13960;50.860;4.352;2022-09-06T14:02:31;30.30;99.90
26230;DHT22;13960;50.860;4.352;2022-09-06T14:04:57;29.40;99.90
26230;DHT22;13960;50.860;4.352;2022-09-06T14:07:22;29.10;99.90
26230;DHT22;13960;50.860;4.352;2022-09-06T14:09:48;29.10;99.90
26230;DHT22;13960;50.860;4.352;2022-09-06T14:12:15;29.60;99.90
26230;DHT22;13960;50.860;4.352;2022-09-06T14:14:40;30.10;99.90
26230;DHT22;13960;50.860;4.352;2022-09-06T14:17:06;29.90;99.90
26230;DHT22;13960;50.860;4.352;2022-09-06T14:19:31;29.30;99.90
26230;DHT22;13960;50.860;4.352;2022-09-06T14:21:57;28.60;99.90
26230;DHT22;13960;50.860;4.352;2022-09-06T14:24:23;28.40;99.90
26230;DHT22;13960;50.860;4.352;2022-09-06T14:26:48;28.30;99.90
26230;DHT22;13960;50.860;4.352;2022-09-06T14:29:14;28.60;99.90
26230;DHT22;13960;50.860;4.352;2022-09-06T14:31:39;28.70;99.90
26230;DHT22;13960;50.860;4.352;2022-09-06T14:34:05;28.50;99.90
26230;DHT22;13960;50.860;4.352;2022-09-06T14:36:31;28.30;99.90
26230;DHT22;13960;50.860;4.352;2022-09-06T14:38:57;28.50;99.90
26230;DHT22;13960;50.860;4.352;2022-09-06T14:41:22;28.20;99.90
26230;DHT22;13960;50.860;4.352;2022-09-06T14:43:49;27.60;99.90
26230;DHT22;13960;50.860;4.352;2022-09-06T14:46:15;27.40;99.90
26230;DHT22;13960;50.860;4.352;2022-09-06T14:48:42;27.30;99.90
26230;DHT22;13960;50.860;4.352;2022-09-06T14:53:36;27.00;99.90
26230;DHT22;13960;50.860;4.352;2022-09-06T14:56:02;27.00;99.90
26230;DHT22;13960;50.860;4.352;2022-09-06T14:58:29;27.00;99.90
26230;DHT22;13960;50.860;4.352;2022-09-06T15:00:55;27.20;99.90
26230;DHT22;13960;50.860;4.352;2022-09-06T15:03:20;27.20;99.90
26230;DHT22;13960;50.860;4.352;2022-09-06T15:05:48;27.10;99.90
26230;DHT22;13960;50.860;4.352;2022-09-06T15:08:13;27.00;99.90
26230;DHT22;13960;50.860;4.352;2022-09-06T15:10:39;26.90;99.90
26230;DHT22;13960;50.860;4.352;2022-09-06T15:13:05;26.90;99.90
26230;DHT22;13960;50.860;4.352;2022-09-06T15:15:30;26.70;99.90
26230;DHT22;13960;50.860;4.352;2022-09-06T15:17:56;26.60;99.90
26230;DHT22;13960;50.860;4.352;2022-09-06T15:20:21;26.40;99.90
26230;DHT22;13960;50.860;4.352;2022-09-06T15:22:47;26.50;99.90
26230;DHT22;13960;50.860;4.352;2022-09-06T15:25:14;26.70;99.90
26230;DHT22;13960;50.860;4.352;2022-09-06T15:27:39;26.70;99.90
26230;DHT22;13960;50.860;4.352;2022-09-06T15:30:05;26.50;99.90
26230;DHT22;13960;50.860;4.352;2022-09-06T15:32:30;26.50;99.90
26230;DHT22;13960;50.860;4.352;2022-09-06T15:34:56;26.70;99.90
26230;DHT22;13960;50.860;4.352;2022-09-06T15:37:21;26.50;99.90
26230;DHT22;13960;50.860;4.352;2022-09-06T15:39:47;26.70;99.90
26230;DHT22;13960;50.860;4.352;2022-09-06T15:42:12;26.80;99.90
26230;DHT22;13960;50.860;4.352;2022-09-06T15:44:38;26.80;99.90
26230;DHT22;13960;50.860;4.352;2022-09-06T15:47:03;27.20;99.90
26230;DHT22;13960;50.860;4.352;2022-09-06T15:49:30;27.40;99.90
26230;DHT22;13960;50.860;4.352;2022-09-06T15:51:59;27.80;99.90
26230;DHT22;13960;50.860;4.352;2022-09-06T15:54:25;28.30;99.90
26230;DHT22;13960;50.860;4.352;2022-09-06T15:57:10;28.40;99.90
26230;DHT22;13960;50.860;4.352;2022-09-06T15:59:35;28.50;99.90
26230;DHT22;13960;50.860;4.352;2022-09-06T16:02:01;28.60;99.90
26230;DHT22;13960;50.860;4.352;2022-09-06T16:04:27;28.80;99.90
26230;DHT22;13960;50.860;4.352;2022-09-06T16:06:52;29.10;99.90
26230;DHT22;13960;50.860;4.352;2022-09-06T16:09:18;29.40;99.90
26230;DHT22;13960;50.860;4.352;2022-09-06T16:11:44;29.10;99.90
26230;DHT22;13960;50.860;4.352;2022-09-06T16:14:11;29.10;99.90
26230;DHT22;13960;50.860;4.352;2022-09-06T16:16:37;28.90;99.90
26230;DHT22;13960;50.860;4.352;2022-09-06T16:19:04;28.10;99.90
26230;DHT22;13960;50.860;4.352;2022-09-06T16:21:30;28.00;99.90
26230;DHT22;13960;50.860;4.352;2022-09-06T16:24:00;27.90;99.90
26230;DHT22;13960;50.860;4.352;2022-09-06T16:26:27;27.90;99.90
26230;DHT22;13960;50.860;4.352;2022-09-06T16:28:54;27.40;99.90
26230;DHT22;13960;50.860;4.352;2022-09-06T16:31:19;27.60;99.90
26230;DHT22;13960;50.860;4.352;2022-09-06T16:33:45;27.60;99.90
26230;DHT22;13960;50.860;4.352;2022-09-06T16:36:13;27.30;99.90
26230;DHT22;13960;50.860;4.352;2022-09-06T16:38:39;27.20;99.90
26230;DHT22;13960;50.860;4.352;2022-09-06T16:41:40;27.00;99.90
26230;DHT22;13960;50.860;4.352;2022-09-06T16:43:57;27.40;99.90
26230;DHT22;13960;50.860;4.352;2022-09-06T16:46:24;27.40;99.90
26230;DHT22;13960;50.860;4.352;2022-09-06T16:48:59;27.70;99.90
26230;DHT22;13960;50.860;4.352;2022-09-06T16:51:25;28.30;99.90
26230;DHT22;13960;50.860;4.352;2022-09-06T16:53:52;28.70;99.90
26230;DHT22;13960;50.860;4.352;2022-09-06T16:56:23;28.90;99.90
26230;DHT22;13960;50.860;4.352;2022-09-06T16:58:53;29.00;99.90
26230;DHT22;13960;50.860;4.352;2022-09-06T17:01:19;29.00;99.90
26230;DHT22;13960;50.860;4.352;2022-09-06T17:03:44;28.70;99.90
26230;DHT22;13960;50.860;4.352;2022-09-06T17:06:11;28.60;99.90
26230;DHT22;13960;50.860;4.352;2022-09-06T17:08:37;28.30;99.90
26230;DHT22;13960;50.860;4.352;2022-09-06T17:11:04;28.20;99.90
26230;DHT22;13960;50.860;4.352;2022-09-06T17:13:30;28.30;99.90
26230;DHT22;13960;50.860;4.352;2022-09-06T17:15:56;28.40;99.90
26230;DHT22;13960;50.860;4.352;2022-09-06T17:18:40;28.40;99.90
26230;DHT22;13960;50.860;4.352;2022-09-06T17:21:06;28.40;99.90